Erupción del Volcán Calbuco 22/04/15

Avatar de Usuario
maxibide
Mensajes: 876
Registrado: Dom Ene 02, 2011 2:38 pm
Ubicación: Bahía Blanca

Re: Erupción del Volcán Calbuco 22/04/15

Mensajepor maxibide » Sab Abr 25, 2015 9:49 am

La nubosidad no deja ver la actividad del Calbuco esta mañana, pero parecería que sigue con una columna eruptiva relativamente baja.

Mientras tanto 220 km más al norte el volcán Villarica esta tirando lava por la ladera que da a la webcam, lo que da una imagen bastante interesante (edit: ¿o es solo el reflejo del sol?)

SPOILER - El siguiente texto está oculto. Presioná en la barra para mostrarlo.
Imagen

Avatar de Usuario
hernymet
Mensajes: 254
Registrado: Mar Jul 28, 2009 6:52 pm

Re: Erupción del Volcán Calbuco 22/04/15

Mensajepor hernymet » Sab Abr 25, 2015 10:50 am

segunda tanda de cenizas en aeroparque mucho más abajo que las de ayer (cerca de 4km)
Imagen

MetSul
Mensajes: 1256
Registrado: Mié Mar 10, 2010 10:32 pm

Re: Erupción del Volcán Calbuco 22/04/15

Mensajepor MetSul » Sab Abr 25, 2015 3:53 pm

face2504g.jpg


:o :o :o :o :o :o

771 de PM10 en la estacion de monitoreo del aire en Bahia Blanca? Correcto? Efecto de las cenizas en el aire? El dato és brutal.

SAZM 251800Z 32016KT 7000 VA NSC 27/12 Q1015 VA EN SUSPENCION
SAZM 251700Z 34016KT 7000 VA NSC 26/13 Q1016 VA EN SUSPENCION
SAZM 251600Z 34012KT 7000 VA NSC 24/12 Q1017 VA EN SUSPENCION
SAZM 251500Z 36010KT 9000 VA NSC 22/09 Q1018 VA EN SUSPENCION
SAZM 251400Z 36005KT 9000 VA NSC 20/10 Q1018 VA EN SUSPENCION
SAZM 251300Z 34004KT 9000 VA NSC 16/13 Q1019 VA EN SUSPENCION
SAZM 251200Z 32003KT 7000 VA NSC 10/10 Q1019 VA EN SUSPENCION Y EN DEPOSITO
SAZM 251100Z 32002KT 3000 BR VA NSC 08/08 Q1018
SAZM 251000Z 32002KT 0500 FGVA NSC 09/07 Q1018
SAZM 250900Z 32002KT 0500 FG VA NSC 11/10 Q1018
SAZM 250500Z 00000KT 1500 VA NSC 13/11 Q1018 REVA SUSPENSION Y DEPOSITO
SAZM 250400Z 00000KT 1500 VA NSC 13/12 Q1018 VA SUSPENSION Y DEPOSITO
SAZM 250300Z 00000KT 1500 VA NSC 15/12 Q1018 VA SUSPENSION Y DEPOSITO
SAZM 250200Z 00000KT 1500 VA NSC 16/13 Q1018 VA SUSPENSION Y DEPOSITO
SAZM 250100Z 00000KT 1500 VA NSC 16/12 Q1018 VA SUSPENSION Y DEPOSITO
SAZM 250000Z 00000KT 2000 VA NSC 16/12 Q1017 VA EN SUSPENSION Y EN DEPOSITO
SAZM 242300Z 23004KT 2000 VA NSC 19/11 Q1017
SAZM 242200Z 00000KT 1500 VA NSC 20/12 Q1016
SAZM 242100Z 20005KT 2000 VA NSC 22/13 Q1015
SAZM 242013Z 20005KT 4000 VA NSC 26/13 Q1015 MKR VA EN SUSPENCION Y EN DEPOSITO
SAZM 242000Z 23006KT 6000 VA NSC 26/13 Q1015
SAZM 241900Z 29012KT 9000 VA NSC 28/12 Q1015
SAZM 241800Z 32014KT 9000 VA NSC 28/10 Q1014
SAZM 241700Z 32013KT 9000 VA NSC 27/11 Q1015
SAZM 241600Z 32015KT 9000 VA NSC 26/11 Q1015
SAZM 241500Z 32012KT 9000 VA NSC 24/10 Q1016
SAZM 241400Z 32013KT 9000 VA NSC 20/10 Q1016
SAZM 241300Z 32011KT 9000 VA NSC 15/09 Q1017
SAZM 241200Z 32011KT 9000 VA NSC 13/07 Q1017
SAZM 241100Z 34010KT 9000 VA BKN200 11/06 Q1016
SAZM 241028Z 34012KT 9999 VA BKN200 10/07 Q1016
SAZM 241000Z 34012KT CAVOK 10/07 Q1016
SAZM 240900Z 32012KT CAVOK 08/07 Q1016
MetSul Meteorologia
São Leopoldo - Rio Grande do Sul - Brasil
http://www.metsul.com
climatologia@terra.com.br
Twitter: @metsul - Facebook: facebook.com/metsulmeteorologia

Avatar de Usuario
Ezequiel15
Mensajes: 9275
Registrado: Lun Ene 23, 2012 4:18 pm
Ubicación: Isidro Casanova (Oeste GBA).
Contactar:

Re: Erupción del Volcán Calbuco 22/04/15

Mensajepor Ezequiel15 » Sab Abr 25, 2015 4:03 pm

Presencia de ceniza volcánica en Posadas??
In GFS we don't trust
Los datos que escribo en Clima siempre son de OCBA.

Avatar de Usuario
Marianol
Mensajes: 198
Registrado: Jue Feb 18, 2010 9:11 am

Re: Erupción del Volcán Calbuco 22/04/15

Mensajepor Marianol » Sab Abr 25, 2015 6:38 pm

Hola
Esta bueno el listado comparativo que emitió el Sernageomin. Mi viejo era chico en 1932, vivía en Trenque Lauquen (Bs. As.) y siempre contaba que todo un día estuvo de noche y en el patio de la quinta donde vivía juntaron 25 bolsas de las de 50 kilos de ceniza.

1932: Volcán Quizapu, región del Maule. Una de las mayores erupciones del siglo XX en el mundo. Una erupción de esta naturaleza causaría estragos en la actualidad. Volumen = 10 km3 = 10.000 millones de metros cúbicos de material volcánico (El peso de 1 metro cúbico de material volcánico es cercano a 1 tonelada).

1991: Volcán Hudson, región de Aysén. Importantes efectos en Chile y Argentina. Aún existen sitios sin recuperación por la acumulación de pómez y ceniza. Volumen = 4 km3 = 4.000 millones de metros cúbicos de material volcánico.

2008: Volcán Chaitén, región de Los Lagos. Erupción muy explosiva, con lahares secundarios, producto de la removilización de material por el río Chaitén, destruyó el pueblo 8 días después de haber comenzado la erupción. Posteriormente a la fase explosiva se emplazó un complejo de domos en la caldera. Volumen = 1 km3 = 1.000 millones de metros cúbicos de material volcánico

2011: Cordón Caulle, regiones de Los Lagos y de Los Ríos. Primera erupción exitosamente pronosticada 8 horas antes por la Red Nacional de Vigilancia Volcánica del Sernageomin. Posteriormente a la fase explosiva se emplazó un flujo de lava. Volumen = 0.8 km3 = 800 millones de metros cúbicos de material volcánico.

2015: Volcán Calbuco, región de Los Lagos. Erupción en curso. Volumen = 0.2 km3 = 210 millones de metros cúbicos de material volcánico (actualizándose con nuevos datos).

1993: Volcán Láscar, región de Antofagasta. Es la más reciente erupción de importancia en este volcán, que afectó al noroeste de Argentina (Salta y Jujuy). Volumen = 0.1 km3 = 100 millones de metros cúbicos de material volcánico.

2015: Volcán Villarrica, regiones de la Araucanía y de Los Ríos. Considerando esencialmente la fase del 3 marzo del año en curso. Volumen = 0.01 km3 = 10 millones de metros cúbicos de material volcánico (actualizándose con nuevos datos).

Avatar de Usuario
lucas de zarate
Mensajes: 6247
Registrado: Lun Jul 13, 2009 8:38 pm
Ubicación: zárate, pcia de bs as, argentina
Contactar:

Re: Erupción del Volcán Calbuco 22/04/15

Mensajepor lucas de zarate » Dom Abr 26, 2015 11:47 pm

Duro poco el asunto !

Avatar de Usuario
MOTORHOMEMASTER
Mensajes: 4138
Registrado: Lun May 16, 2011 2:20 pm
Ubicación: Castelar o Hurlingham, Prov. Bs. As.

Re: Erupción del Volcán Calbuco 22/04/15

Mensajepor MOTORHOMEMASTER » Lun Abr 27, 2015 8:34 am

lucas de zarate escribió:Duro poco el asunto !


Por efecto del viento, vuelve a haber cenizas en Bariloche... :roll:

Avatar de Usuario
Cristofer
Mensajes: 11007
Registrado: Vie Oct 02, 2009 12:50 am
Ubicación: Aguilares- Tucuman
Contactar:

Re: Erupción del Volcán Calbuco 22/04/15

Mensajepor Cristofer » Lun Abr 27, 2015 9:32 am

Y con todo el viento del norte que tendrá la zona, seguro se irán hacia el sur toda la ceniza
No te olvides de visitar: AFICIONADOS A LA METEOROLOGIA ARGENTINA

Avatar de Usuario
stormchaserAlberto
Mensajes: 6973
Registrado: Jue Feb 20, 2014 2:34 am
Ubicación: Río Tercero,Córdoba.
Contactar:

Re: Erupción del Volcán Calbuco 22/04/15

Mensajepor stormchaserAlberto » Jue Abr 30, 2015 12:01 am

Dome, dome, dome..The life is a dome

Avatar de Usuario
NicodWilde
Mensajes: 14383
Registrado: Mié Ago 01, 2012 7:34 pm
Ubicación: Wilde, Buenos Aires

Re: Erupción del Volcán Calbuco 22/04/15

Mensajepor NicodWilde » Jue Abr 30, 2015 1:15 am



Posta???

Ya hace una semana de la última erupción.
El frío polar es mi obsesión.

Nico


Volver a “Seguimientos Meteorológicos”

¿Quién está conectado?

Usuarios navegando por este Foro: federico y 3 invitados